createdAt,value
2019-05-20T00:00:32.601Z,19.00
2019-05-20T00:01:32.576Z,19.80
2019-05-20T00:02:32.560Z,20.70
2019-05-20T00:03:32.549Z,22.40
2019-05-20T00:04:32.536Z,22.30
2019-05-20T00:05:32.589Z,22.20
2019-05-20T00:06:32.511Z,22.60
2019-05-20T00:07:32.505Z,21.20
2019-05-20T00:08:32.492Z,21.50
2019-05-20T00:09:32.480Z,19.90
2019-05-20T00:10:32.491Z,22.60
2019-05-20T00:11:32.457Z,19.80
2019-05-20T00:12:32.451Z,18.80
2019-05-20T00:13:32.438Z,21.20
2019-05-20T00:14:32.421Z,19.90
2019-05-20T00:15:32.413Z,18.20
2019-05-20T00:16:32.416Z,19.70
2019-05-20T00:17:32.416Z,22.30
2019-05-20T00:18:32.379Z,21.50
2019-05-20T00:19:32.373Z,22.60
2019-05-20T00:20:32.376Z,22.70
2019-05-20T00:21:32.343Z,23.10
2019-05-20T00:22:32.344Z,22.00
2019-05-20T00:23:32.322Z,23.50
2019-05-20T00:24:32.314Z,22.30
2019-05-20T00:25:32.301Z,21.80
2019-05-20T00:26:32.304Z,23.60
2019-05-20T00:27:32.274Z,25.70
2019-05-20T00:28:32.266Z,27.20
2019-05-20T00:29:32.260Z,27.40
2019-05-20T00:30:32.252Z,26.30
2019-05-20T00:31:32.245Z,33.50
2019-05-20T00:32:41.035Z,30.20
2019-05-20T00:33:33.216Z,30.10
2019-05-20T00:34:35.271Z,29.10
2019-05-20T00:35:32.183Z,30.00
2019-05-20T00:36:32.176Z,30.30
2019-05-20T00:37:32.158Z,30.50
2019-05-20T00:38:32.160Z,31.70
2019-05-20T00:39:32.139Z,32.60
2019-05-20T00:40:32.127Z,30.90
2019-05-20T00:41:32.110Z,32.10
2019-05-20T00:42:32.100Z,32.80
2019-05-20T00:43:32.140Z,31.00
2019-05-20T00:44:32.087Z,31.80
2019-05-20T00:45:32.069Z,30.80
2019-05-20T00:46:32.064Z,31.40
2019-05-20T00:47:32.066Z,30.10
2019-05-20T00:48:32.035Z,30.10
2019-05-20T00:49:32.019Z,31.50
2019-05-20T00:50:32.011Z,30.90
2019-05-20T00:51:31.999Z,28.40
2019-05-20T00:52:32.007Z,26.90
2019-05-20T00:53:31.972Z,28.20
2019-05-20T00:54:31.965Z,29.10
2019-05-20T00:55:31.954Z,28.90
2019-05-20T00:56:31.945Z,27.10
2019-05-20T00:57:31.941Z,30.30
2019-05-20T00:58:31.916Z,24.20
2019-05-20T00:59:31.905Z,27.40
2019-05-20T01:00:31.893Z,28.00
2019-05-20T01:01:31.911Z,28.20
2019-05-20T01:02:31.888Z,28.50
2019-05-20T01:03:31.871Z,27.50
2019-05-20T01:04:31.854Z,27.70
2019-05-20T01:05:31.839Z,28.00
2019-05-20T01:06:31.826Z,26.90
2019-05-20T01:07:31.833Z,25.10
2019-05-20T01:08:31.815Z,27.10
2019-05-20T01:09:31.791Z,26.90
2019-05-20T01:10:31.777Z,26.50
2019-05-20T01:11:31.773Z,25.70
2019-05-20T01:12:31.756Z,24.80
2019-05-20T01:13:31.757Z,23.10
2019-05-20T01:14:31.733Z,26.10
2019-05-20T01:15:31.728Z,28.10
2019-05-20T01:16:31.711Z,26.60
2019-05-20T01:17:31.701Z,25.00
2019-05-20T01:18:31.699Z,21.70
2019-05-20T01:19:31.679Z,25.90
2019-05-20T01:20:31.673Z,23.50
2019-05-20T01:21:31.655Z,27.60
2019-05-20T01:22:31.643Z,24.10
2019-05-20T01:23:31.668Z,23.50
2019-05-20T01:24:31.619Z,22.30
2019-05-20T01:25:31.606Z,22.50
2019-05-20T01:26:31.594Z,22.90
2019-05-20T01:27:31.587Z,22.80
2019-05-20T01:28:31.574Z,26.40
2019-05-20T01:29:31.573Z,25.20
2019-05-20T01:30:31.552Z,23.90
2019-05-20T01:31:31.539Z,20.40
2019-05-20T01:32:31.530Z,22.40
2019-05-20T01:33:31.517Z,21.70
2019-05-20T01:34:31.522Z,24.40
2019-05-20T01:35:31.511Z,23.30
2019-05-20T01:36:31.491Z,24.20
2019-05-20T01:37:31.471Z,26.40
2019-05-20T01:38:31.459Z,24.90
2019-05-20T01:39:31.504Z,28.50
2019-05-20T01:40:31.447Z,28.50
2019-05-20T01:41:31.431Z,33.00
2019-05-20T01:42:31.413Z,29.30
2019-05-20T01:43:31.407Z,28.50
2019-05-20T01:44:31.392Z,28.00
2019-05-20T01:45:31.403Z,24.70
2019-05-20T01:46:31.374Z,29.50
2019-05-20T01:47:31.358Z,31.40
2019-05-20T01:48:31.347Z,36.80
2019-05-20T01:49:31.339Z,30.10
2019-05-20T01:50:31.329Z,29.10
2019-05-20T01:51:31.321Z,28.80
2019-05-20T01:52:31.304Z,27.00
2019-05-20T01:53:31.290Z,27.00
2019-05-20T01:54:31.285Z,27.40
2019-05-20T01:55:31.283Z,31.40
2019-05-20T01:56:31.255Z,31.50
2019-05-20T01:57:31.256Z,32.20
2019-05-20T01:58:31.240Z,34.20
2019-05-20T01:59:31.250Z,37.80
2019-05-20T02:00:31.227Z,39.20
2019-05-20T02:01:31.199Z,41.00
2019-05-20T02:02:31.190Z,40.10
2019-05-20T02:03:32.429Z,39.50
2019-05-20T02:04:31.173Z,35.20
2019-05-20T02:05:31.191Z,35.00
2019-05-20T02:06:31.148Z,34.40
2019-05-20T02:07:31.133Z,35.90
2019-05-20T02:08:31.121Z,35.70
2019-05-20T02:09:31.114Z,39.20
2019-05-20T02:10:31.097Z,42.60
2019-05-20T02:11:31.101Z,43.50
2019-05-20T02:12:31.078Z,38.30
2019-05-20T02:13:31.070Z,41.30
2019-05-20T02:14:31.056Z,37.60
2019-05-20T02:15:31.057Z,38.50
2019-05-20T02:16:31.091Z,37.30
2019-05-20T02:17:31.026Z,35.00
2019-05-20T02:18:31.011Z,40.20
2019-05-20T02:19:30.996Z,35.30
2019-05-20T02:20:30.984Z,34.20
2019-05-20T02:21:30.992Z,40.50
2019-05-20T02:22:30.967Z,35.40
2019-05-20T02:23:30.958Z,38.40
2019-05-20T02:24:30.940Z,35.90
2019-05-20T02:25:30.925Z,36.80
2019-05-20T02:26:30.945Z,38.50
2019-05-20T02:27:30.905Z,40.00
2019-05-20T02:28:30.893Z,40.80
2019-05-20T02:29:30.895Z,44.10
2019-05-20T02:30:30.871Z,46.10
2019-05-20T02:31:30.859Z,39.30
2019-05-20T02:32:30.874Z,41.50
2019-05-20T02:33:47.853Z,40.20
2019-05-20T02:34:31.824Z,41.90
2019-05-20T02:35:30.837Z,38.00
2019-05-20T02:36:30.814Z,45.50
2019-05-20T02:37:30.794Z,47.00
2019-05-20T02:38:30.777Z,42.90
2019-05-20T02:39:30.768Z,40.20
2019-05-20T02:40:30.761Z,39.70
2019-05-20T02:41:30.754Z,41.80
2019-05-20T02:42:30.750Z,44.20
2019-05-20T02:43:30.758Z,46.70
2019-05-20T02:44:30.712Z,43.40
2019-05-20T02:45:30.706Z,43.70
2019-05-20T02:46:30.689Z,42.10
2019-05-20T02:47:30.680Z,45.60
2019-05-20T02:48:30.665Z,44.70
2019-05-20T02:49:30.670Z,40.80
2019-05-20T02:50:30.653Z,43.40
2019-05-20T02:51:30.642Z,43.60
2019-05-20T02:52:30.637Z,45.50
2019-05-20T02:53:30.628Z,44.40
2019-05-20T02:54:30.598Z,48.20
2019-05-20T02:55:30.587Z,54.70
2019-05-20T02:56:30.589Z,54.50
2019-05-20T02:57:30.569Z,56.60
2019-05-20T02:58:30.581Z,58.30
2019-05-20T02:59:30.554Z,58.90
2019-05-20T03:00:30.529Z,58.50
2019-05-20T03:01:30.528Z,59.90
2019-05-20T03:02:30.513Z,60.80
2019-05-20T03:03:30.509Z,62.10
2019-05-20T03:04:30.490Z,59.00
2019-05-20T03:05:30.470Z,59.50
2019-05-20T03:06:30.470Z,59.70
2019-05-20T03:07:30.463Z,58.50
2019-05-20T03:08:30.470Z,61.30
2019-05-20T03:09:30.426Z,59.60
2019-05-20T03:10:30.413Z,62.30
2019-05-20T03:11:30.413Z,67.00
2019-05-20T03:12:30.395Z,63.70
2019-05-20T03:13:30.389Z,68.00
2019-05-20T03:14:30.390Z,64.30
2019-05-20T03:15:30.360Z,65.20
2019-05-20T03:16:30.343Z,62.40
2019-05-20T03:17:30.337Z,63.80
2019-05-20T03:18:30.354Z,62.70
2019-05-20T03:19:30.321Z,63.70
2019-05-20T03:20:30.298Z,56.50
2019-05-20T03:21:30.286Z,62.30
2019-05-20T03:22:30.280Z,56.50
2019-05-20T03:23:30.334Z,58.10
2019-05-20T03:24:30.267Z,53.10
2019-05-20T03:25:30.258Z,57.90
2019-05-20T03:26:30.262Z,57.60
2019-05-20T03:27:30.218Z,56.10
2019-05-20T03:28:30.216Z,56.30
2019-05-20T03:29:30.202Z,59.50
2019-05-20T03:30:30.196Z,58.10
2019-05-20T03:31:30.297Z,56.30
2019-05-20T03:32:30.160Z,56.30
2019-05-20T03:33:30.151Z,59.60
2019-05-20T03:34:45.979Z,56.40
2019-05-20T03:35:31.136Z,57.40
2019-05-20T03:36:30.147Z,64.90
2019-05-20T03:37:30.104Z,60.30
2019-05-20T03:38:30.092Z,60.90
2019-05-20T03:39:30.088Z,61.00
2019-05-20T03:40:30.071Z,62.50
2019-05-20T03:41:30.073Z,61.10
2019-05-20T03:42:30.063Z,58.50
2019-05-20T03:43:30.042Z,57.40
2019-05-20T03:44:30.025Z,57.10
2019-05-20T03:45:30.011Z,58.50
2019-05-20T03:46:30.006Z,59.80
2019-05-20T03:47:29.991Z,57.00
2019-05-20T03:48:29.992Z,60.70
2019-05-20T03:49:29.973Z,61.00
2019-05-20T03:50:29.955Z,62.40
2019-05-20T03:51:29.944Z,59.50
2019-05-20T03:52:29.950Z,57.00
2019-05-20T03:53:29.951Z,53.00
2019-05-20T03:54:29.907Z,53.00
2019-05-20T03:55:29.900Z,55.60
2019-05-20T03:56:29.889Z,60.20
2019-05-20T03:57:29.876Z,48.90
2019-05-20T03:58:29.863Z,57.90
2019-05-20T03:59:29.873Z,61.80
2019-05-20T04:00:29.841Z,53.40
2019-05-20T04:01:29.843Z,58.60
2019-05-20T04:02:29.834Z,57.00
2019-05-20T04:03:29.811Z,54.70
2019-05-20T04:04:29.799Z,61.20
2019-05-20T04:05:29.786Z,61.50
2019-05-20T04:06:29.777Z,59.80
2019-05-20T04:07:29.791Z,58.90
2019-05-20T04:08:29.748Z,59.10
2019-05-20T04:09:29.753Z,62.30
2019-05-20T04:10:29.730Z,62.90
2019-05-20T04:11:29.721Z,65.40
2019-05-20T04:12:29.706Z,63.50
2019-05-20T04:13:29.709Z,69.40
2019-05-20T04:14:29.690Z,66.70
2019-05-20T04:15:29.677Z,66.40
2019-05-20T04:16:29.662Z,61.40
2019-05-20T04:17:29.652Z,65.50
2019-05-20T04:18:29.658Z,65.30
2019-05-20T04:19:29.628Z,71.50
2019-05-20T04:20:29.618Z,69.40
2019-05-20T04:21:29.602Z,72.30
2019-05-20T04:22:29.591Z,73.40
2019-05-20T04:23:29.595Z,72.00
2019-05-20T04:24:29.575Z,71.90
2019-05-20T04:25:29.561Z,77.10
2019-05-20T04:26:29.549Z,70.80
2019-05-20T04:27:29.539Z,74.00
2019-05-20T04:28:29.538Z,74.50
2019-05-20T04:29:29.525Z,77.00
2019-05-20T04:30:29.514Z,76.50
2019-05-20T04:31:29.496Z,75.80
2019-05-20T04:32:29.482Z,75.00
2019-05-20T04:33:29.490Z,73.40
2019-05-20T04:34:29.482Z,79.70
2019-05-20T04:35:29.447Z,78.00
2019-05-20T04:36:29.438Z,82.50
2019-05-20T04:37:29.428Z,77.50
2019-05-20T04:38:29.431Z,82.00
2019-05-20T04:39:29.411Z,83.70
2019-05-20T04:40:29.436Z,87.10
2019-05-20T04:41:29.391Z,79.00
2019-05-20T04:42:29.383Z,83.30
2019-05-20T04:43:29.382Z,89.70
2019-05-20T04:44:29.356Z,87.30
2019-05-20T04:45:29.371Z,84.90
2019-05-20T04:46:29.329Z,85.60
2019-05-20T04:47:29.320Z,87.50
2019-05-20T04:48:29.316Z,90.90
2019-05-20T04:49:29.297Z,90.30
2019-05-20T04:50:29.286Z,87.90
2019-05-20T04:51:29.295Z,92.60
2019-05-20T04:52:29.261Z,96.80
2019-05-20T04:53:29.251Z,94.40
2019-05-20T04:54:29.250Z,98.40
2019-05-20T04:55:29.228Z,95.40
2019-05-20T04:56:29.547Z,97.90
2019-05-20T04:57:29.210Z,98.20
2019-05-20T04:58:29.193Z,104.30
2019-05-20T04:59:29.209Z,107.60
2019-05-20T05:00:29.176Z,102.60
2019-05-20T05:01:29.169Z,107.20
2019-05-20T05:02:29.152Z,109.10
2019-05-20T05:03:29.146Z,116.20
2019-05-20T05:04:29.138Z,106.90
2019-05-20T05:05:37.553Z,110.20
2019-05-20T05:06:30.102Z,112.00
2019-05-20T05:07:29.092Z,114.90
2019-05-20T05:08:29.087Z,118.10
2019-05-20T05:09:29.074Z,117.30
2019-05-20T05:10:29.062Z,115.30
2019-05-20T05:11:29.061Z,110.90
2019-05-20T05:12:29.036Z,113.30
2019-05-20T05:13:29.061Z,117.70
2019-05-20T05:14:29.016Z,116.60
2019-05-20T05:15:29.023Z,115.40
2019-05-20T05:16:28.991Z,115.90
2019-05-20T05:17:28.989Z,115.50
2019-05-20T05:18:28.976Z,117.80
2019-05-20T05:19:28.956Z,118.60
2019-05-20T05:20:28.965Z,121.20
2019-05-20T05:21:28.937Z,118.80
2019-05-20T05:22:28.926Z,119.10
2019-05-20T05:23:28.919Z,123.40
2019-05-20T05:24:28.902Z,119.50
2019-05-20T05:25:28.893Z,124.80
2019-05-20T05:26:28.899Z,120.70
2019-05-20T05:27:28.876Z,121.80
2019-05-20T05:28:28.865Z,127.30
2019-05-20T05:29:28.849Z,126.90
2019-05-20T05:30:28.837Z,135.00
2019-05-20T05:31:28.834Z,132.70
2019-05-20T05:32:28.812Z,135.60
2019-05-20T05:33:28.803Z,126.50
2019-05-20T05:34:28.793Z,131.30
2019-05-20T05:35:28.780Z,130.10
2019-05-20T05:36:28.790Z,136.10
2019-05-20T05:37:28.756Z,130.90
2019-05-20T05:38:28.744Z,135.00
2019-05-20T05:39:28.745Z,133.60
2019-05-20T05:40:28.725Z,142.00
2019-05-20T05:41:28.711Z,136.20
2019-05-20T05:42:28.714Z,137.90
2019-05-20T05:43:28.689Z,132.50
2019-05-20T05:44:28.680Z,135.30
2019-05-20T05:45:29.446Z,132.70
2019-05-20T05:46:28.662Z,139.30
2019-05-20T05:47:28.661Z,131.90
2019-05-20T05:48:28.636Z,135.20
2019-05-20T05:49:28.621Z,125.30
2019-05-20T05:50:28.631Z,136.30
2019-05-20T05:51:35.529Z,130.70
2019-05-20T05:52:28.619Z,129.70
2019-05-20T05:53:28.593Z,134.10
2019-05-20T05:54:28.567Z,134.30
2019-05-20T05:55:28.554Z,140.20
2019-05-20T05:56:28.558Z,135.00
2019-05-20T05:57:28.552Z,135.80
2019-05-20T05:58:28.531Z,141.60
2019-05-20T05:59:28.523Z,131.50
2019-05-20T06:00:28.506Z,132.80
2019-05-20T06:01:28.500Z,132.80
2019-05-20T06:02:28.483Z,133.60
2019-05-20T06:03:28.504Z,138.60
2019-05-20T06:04:28.458Z,131.90
2019-05-20T06:05:31.632Z,141.20
2019-05-20T06:06:28.435Z,132.20
2019-05-20T06:07:28.424Z,125.80
2019-05-20T06:08:28.429Z,134.40
2019-05-20T06:09:28.401Z,131.00
2019-05-20T06:10:28.400Z,135.30
2019-05-20T06:11:28.379Z,132.40
2019-05-20T06:12:28.383Z,128.70
2019-05-20T06:13:28.375Z,126.80
2019-05-20T06:14:28.362Z,129.30
2019-05-20T06:15:28.333Z,128.50
2019-05-20T06:16:36.606Z,120.80
2019-05-20T06:17:29.313Z,126.60
2019-05-20T06:18:28.319Z,126.00
2019-05-20T06:19:28.295Z,121.60
2019-05-20T06:20:28.313Z,121.40
2019-05-20T06:21:28.275Z,118.40
2019-05-20T06:22:28.259Z,125.40
2019-05-20T06:23:28.260Z,116.90
2019-05-20T06:24:28.276Z,114.60
2019-05-20T06:25:28.233Z,116.60
2019-05-20T06:26:28.225Z,116.30
2019-05-20T06:27:28.218Z,119.60
2019-05-20T06:28:28.189Z,99.30
2019-05-20T06:29:28.180Z,111.30
2019-05-20T06:30:28.182Z,110.60
2019-05-20T06:31:28.171Z,111.90
2019-05-20T06:32:28.145Z,108.80
2019-05-20T06:33:28.141Z,104.40
2019-05-20T06:34:28.131Z,110.00
2019-05-20T06:35:28.137Z,105.10
2019-05-20T06:36:28.102Z,113.60
2019-05-20T06:37:28.092Z,109.70
2019-05-20T06:38:28.080Z,110.40
2019-05-20T06:39:28.064Z,109.80
2019-05-20T06:40:28.064Z,108.30
2019-05-20T06:41:28.060Z,112.70
2019-05-20T06:42:28.030Z,104.50
2019-05-20T06:43:28.033Z,109.70
2019-05-20T06:44:28.023Z,108.80
2019-05-20T06:45:28.020Z,102.00
2019-05-20T06:46:28.000Z,108.10
2019-05-20T06:47:28.000Z,104.10
2019-05-20T06:48:27.968Z,104.80
2019-05-20T06:49:27.956Z,105.60
2019-05-20T06:50:29.770Z,100.70
2019-05-20T06:51:27.945Z,102.60
2019-05-20T06:52:35.849Z,95.90
2019-05-20T06:53:28.907Z,97.90
2019-05-20T06:54:27.922Z,98.60
2019-05-20T06:55:27.889Z,98.40
2019-05-20T06:56:27.893Z,98.60
2019-05-20T06:57:27.870Z,101.90
2019-05-20T06:58:27.852Z,103.40
2019-05-20T06:59:27.838Z,99.10
2019-05-20T07:00:27.831Z,101.00
2019-05-20T07:01:27.820Z,102.30
2019-05-20T07:02:27.818Z,108.20
2019-05-20T07:03:27.797Z,108.80
2019-05-20T07:04:27.785Z,105.00
2019-05-20T07:05:27.778Z,106.60
2019-05-20T07:06:44.837Z,105.30
2019-05-20T07:07:28.761Z,95.80
2019-05-20T07:08:27.741Z,99.90
2019-05-20T07:09:27.741Z,103.40
2019-05-20T07:10:27.723Z,103.20
2019-05-20T07:11:27.716Z,103.80
2019-05-20T07:12:40.585Z,105.10
2019-05-20T07:13:28.707Z,104.10
2019-05-20T07:14:27.671Z,102.00
2019-05-20T07:15:27.661Z,103.50
2019-05-20T07:16:27.685Z,106.70
2019-05-20T07:17:27.639Z,102.90
2019-05-20T07:18:27.681Z,108.70
2019-05-20T07:19:27.626Z,110.40
2019-05-20T07:20:27.608Z,106.30
2019-05-20T07:21:27.591Z,103.00
2019-05-20T07:22:27.596Z,103.60
2019-05-20T07:23:27.569Z,111.40
2019-05-20T07:24:27.573Z,112.90
2019-05-20T07:25:27.623Z,111.00
2019-05-20T07:26:27.534Z,106.90
2019-05-20T07:27:27.542Z,108.00
2019-05-20T07:28:27.515Z,115.40
2019-05-20T07:29:27.511Z,109.40
2019-05-20T07:30:27.495Z,110.90
2019-05-20T07:31:27.482Z,109.10
2019-05-20T07:32:27.484Z,107.20
2019-05-20T07:33:27.461Z,107.60
2019-05-20T07:34:27.479Z,110.60
2019-05-20T07:35:30.780Z,109.80
2019-05-20T07:36:27.426Z,111.00
2019-05-20T07:37:27.456Z,108.90
2019-05-20T07:38:27.413Z,107.30
2019-05-20T07:39:27.394Z,108.70
2019-05-20T07:40:27.413Z,110.20
2019-05-20T07:41:27.393Z,108.70
2019-05-20T07:42:27.368Z,107.40
2019-05-20T07:43:27.363Z,114.00
2019-05-20T07:44:27.334Z,114.40
2019-05-20T07:45:27.335Z,107.30
2019-05-20T07:46:27.312Z,113.00
2019-05-20T07:47:27.302Z,111.60
2019-05-20T07:48:27.569Z,114.40
2019-05-20T07:49:27.285Z,114.40
2019-05-20T07:50:27.269Z,112.70
2019-05-20T07:51:27.257Z,114.10
2019-05-20T07:52:27.251Z,115.90
2019-05-20T07:53:27.270Z,109.20
2019-05-20T07:54:27.226Z,111.40
2019-05-20T07:55:27.230Z,111.40
2019-05-20T07:56:27.206Z,113.30
2019-05-20T07:57:27.191Z,116.30
2019-05-20T07:58:27.188Z,112.80
2019-05-20T07:59:27.185Z,120.80
2019-05-20T08:00:27.170Z,116.70
2019-05-20T08:01:27.149Z,115.80
2019-05-20T08:02:27.143Z,112.70
2019-05-20T08:03:27.125Z,110.90
2019-05-20T08:04:27.159Z,116.20
2019-05-20T08:05:27.111Z,113.80
2019-05-20T08:06:27.096Z,107.30
2019-05-20T08:07:41.384Z,116.60
2019-05-20T08:08:28.068Z,111.40
2019-05-20T08:09:27.059Z,114.00
2019-05-20T08:10:27.074Z,109.10
2019-05-20T08:11:27.037Z,107.20
2019-05-20T08:12:27.033Z,107.40
2019-05-20T08:13:27.014Z,109.80
2019-05-20T08:14:27.004Z,110.40
2019-05-20T08:15:26.993Z,110.00
2019-05-20T08:16:26.996Z,110.60
2019-05-20T08:17:26.972Z,107.60
2019-05-20T08:18:26.971Z,113.00
2019-05-20T08:19:26.959Z,104.60
2019-05-20T08:20:26.945Z,104.20
2019-05-20T08:21:26.957Z,104.90
2019-05-20T08:22:26.914Z,110.70
2019-05-20T08:23:26.908Z,113.60
2019-05-20T08:24:26.890Z,104.10
2019-05-20T08:25:26.895Z,104.90
2019-05-20T08:26:26.981Z,111.60
2019-05-20T08:27:26.871Z,106.60
2019-05-20T08:28:26.848Z,106.70
2019-05-20T08:29:26.837Z,104.30
2019-05-20T08:30:26.843Z,113.50
2019-05-20T08:31:26.831Z,106.40
2019-05-20T08:32:26.842Z,107.60
2019-05-20T08:33:26.793Z,110.70
2019-05-20T08:34:26.778Z,107.50
2019-05-20T08:35:26.795Z,102.00
2019-05-20T08:36:26.762Z,104.70
2019-05-20T08:37:42.012Z,103.60
2019-05-20T08:38:27.738Z,107.10
2019-05-20T08:39:26.729Z,109.00
2019-05-20T08:40:26.723Z,107.80
2019-05-20T08:41:26.720Z,111.00
2019-05-20T08:42:26.691Z,111.50
2019-05-20T08:43:26.681Z,102.80
2019-05-20T08:44:26.668Z,100.90
2019-05-20T08:45:26.660Z,107.20
2019-05-20T08:46:26.665Z,107.00
2019-05-20T08:47:26.639Z,105.50
2019-05-20T08:48:26.626Z,110.40
2019-05-20T08:49:26.719Z,104.70
2019-05-20T08:50:26.604Z,105.10
2019-05-20T08:51:26.631Z,102.50
2019-05-20T08:52:26.583Z,104.70
2019-05-20T08:53:26.590Z,108.10
2019-05-20T08:54:26.575Z,108.70
2019-05-20T08:55:26.551Z,105.30
2019-05-20T08:56:26.539Z,107.00
2019-05-20T08:57:26.535Z,107.60
2019-05-20T08:58:26.525Z,106.60
2019-05-20T08:59:26.511Z,108.20
2019-05-20T09:00:26.624Z,106.10
2019-05-20T09:01:26.484Z,117.40
2019-05-20T09:02:26.469Z,116.30
2019-05-20T09:03:30.182Z,109.50
2019-05-20T09:04:26.447Z,105.40
2019-05-20T09:05:28.368Z,117.70
2019-05-20T09:06:26.469Z,106.60
2019-05-20T09:07:26.427Z,109.10
2019-05-20T09:08:26.405Z,112.90
2019-05-20T09:09:26.502Z,110.40
2019-05-20T09:10:26.380Z,108.40
2019-05-20T09:11:26.372Z,105.50
2019-05-20T09:12:26.370Z,114.30
2019-05-20T09:13:26.711Z,107.70
2019-05-20T09:14:26.336Z,103.30
2019-05-20T09:15:26.320Z,102.90
2019-05-20T09:16:26.345Z,101.30
2019-05-20T09:17:26.300Z,101.20
2019-05-20T09:18:26.304Z,95.40
2019-05-20T09:19:26.298Z,96.30
2019-05-20T09:20:26.280Z,93.10
2019-05-20T09:21:26.276Z,98.70
2019-05-20T09:22:26.263Z,98.90
2019-05-20T09:23:26.241Z,94.30
2019-05-20T09:24:26.231Z,90.50
2019-05-20T09:25:26.218Z,94.40
2019-05-20T09:26:26.208Z,97.60
2019-05-20T09:27:26.305Z,94.00
2019-05-20T09:28:26.181Z,90.30
2019-05-20T09:29:26.238Z,83.10
2019-05-20T09:30:26.162Z,87.00
2019-05-20T09:31:26.148Z,88.50
2019-05-20T09:32:26.153Z,88.50
2019-05-20T09:33:26.128Z,89.10
2019-05-20T09:34:27.036Z,87.10
2019-05-20T09:35:26.140Z,85.60
2019-05-20T09:36:26.185Z,89.40
2019-05-20T09:37:26.081Z,86.10
2019-05-20T09:38:26.093Z,86.90
2019-05-20T09:39:26.066Z,83.50
2019-05-20T09:40:26.058Z,82.60
2019-05-20T09:41:26.046Z,83.30
2019-05-20T09:42:26.037Z,80.80
2019-05-20T09:43:26.018Z,82.70
2019-05-20T09:44:26.038Z,87.10
2019-05-20T09:45:25.992Z,80.20
2019-05-20T09:46:25.983Z,83.00
2019-05-20T09:47:25.992Z,85.50
2019-05-20T09:48:25.964Z,85.70
2019-05-20T09:49:26.113Z,81.90
2019-05-20T09:50:25.994Z,81.20
2019-05-20T09:51:25.928Z,78.40
2019-05-20T09:52:25.911Z,77.60
2019-05-20T09:53:25.901Z,78.50
2019-05-20T09:54:25.902Z,79.30
2019-05-20T09:55:25.883Z,82.10
2019-05-20T09:56:25.869Z,82.30
2019-05-20T09:57:25.857Z,82.90
2019-05-20T09:58:46.859Z,81.90
2019-05-20T09:59:40.522Z,79.50
2019-05-20T10:00:26.825Z,76.10
2019-05-20T10:01:25.826Z,76.30
2019-05-20T10:02:34.947Z,73.80
2019-05-20T10:03:26.785Z,77.60
2019-05-20T10:04:25.786Z,74.60
2019-05-20T10:05:25.769Z,76.80
2019-05-20T10:06:25.765Z,75.00
2019-05-20T10:07:25.749Z,74.20
2019-05-20T10:08:37.511Z,70.60
2019-05-20T10:09:26.743Z,77.20
2019-05-20T10:10:25.718Z,72.90
2019-05-20T10:11:25.697Z,73.80
2019-05-20T10:12:44.268Z,80.70
2019-05-20T10:13:26.687Z,75.40
2019-05-20T10:14:25.766Z,71.90
2019-05-20T10:15:25.659Z,74.50
2019-05-20T10:16:25.655Z,75.90
2019-05-20T10:17:25.645Z,79.60
2019-05-20T10:18:36.767Z,75.70
2019-05-20T10:19:26.615Z,78.10
2019-05-20T10:20:25.605Z,80.30
2019-05-20T10:21:25.587Z,77.20
2019-05-20T10:22:25.576Z,75.10
2019-05-20T10:23:25.592Z,70.90
2019-05-20T10:24:25.584Z,75.30
2019-05-20T10:25:25.545Z,76.40
2019-05-20T10:26:25.531Z,76.30
2019-05-20T10:27:25.519Z,80.80
2019-05-20T10:28:25.527Z,76.90
2019-05-20T10:29:25.499Z,75.60
2019-05-20T10:30:25.494Z,73.10
2019-05-20T10:31:25.489Z,77.20
2019-05-20T10:32:25.466Z,77.30
2019-05-20T10:33:25.468Z,77.00
2019-05-20T10:34:25.456Z,75.80
2019-05-20T10:35:25.432Z,77.10
2019-05-20T10:36:25.431Z,76.60
2019-05-20T10:37:25.427Z,73.30
2019-05-20T10:38:25.422Z,78.30
2019-05-20T10:39:25.390Z,75.80
2019-05-20T10:40:25.377Z,72.30
2019-05-20T10:41:25.379Z,74.30
2019-05-20T10:42:25.358Z,74.80
2019-05-20T10:43:25.342Z,77.60
2019-05-20T10:44:25.356Z,78.90
2019-05-20T10:45:25.324Z,74.40
2019-05-20T10:46:25.314Z,74.60
2019-05-20T10:47:25.309Z,73.20
2019-05-20T10:48:25.286Z,72.60
2019-05-20T10:49:25.288Z,74.50
2019-05-20T10:50:25.279Z,76.40
2019-05-20T10:51:25.252Z,76.50
2019-05-20T10:52:25.249Z,74.70
2019-05-20T10:53:28.263Z,74.40
2019-05-20T10:54:25.237Z,70.40
2019-05-20T10:55:25.254Z,73.70
2019-05-20T10:56:25.227Z,76.60
2019-05-20T10:57:25.206Z,73.00
2019-05-20T10:58:25.194Z,72.40
2019-05-20T10:59:25.166Z,72.60
2019-05-20T11:00:25.159Z,69.70
2019-05-20T11:01:25.152Z,72.90
2019-05-20T11:02:25.136Z,71.20
2019-05-20T11:03:25.137Z,70.70
2019-05-20T11:04:25.127Z,69.90
2019-05-20T11:05:25.125Z,73.30
2019-05-20T11:06:25.084Z,75.20
2019-05-20T11:07:25.079Z,69.50
2019-05-20T11:08:25.061Z,70.70
2019-05-20T11:09:25.047Z,74.00
2019-05-20T11:10:25.076Z,74.30
2019-05-20T11:11:25.034Z,72.80
2019-05-20T11:12:25.015Z,77.20
2019-05-20T11:13:25.010Z,73.40
2019-05-20T11:14:24.993Z,76.10
2019-05-20T11:15:24.994Z,75.70
2019-05-20T11:16:24.973Z,74.50
2019-05-20T11:17:24.956Z,74.60
2019-05-20T11:18:24.943Z,79.30
2019-05-20T11:19:24.936Z,73.30
2019-05-20T11:20:24.954Z,72.40
2019-05-20T11:21:24.921Z,70.00
2019-05-20T11:22:24.935Z,74.60
2019-05-20T11:23:24.892Z,71.30
2019-05-20T11:24:24.886Z,72.90
2019-05-20T11:25:24.875Z,69.70
2019-05-20T11:26:24.865Z,70.60
2019-05-20T11:27:24.847Z,71.60
2019-05-20T11:28:24.835Z,72.60
2019-05-20T11:29:24.827Z,72.00
2019-05-20T11:30:24.809Z,69.10
2019-05-20T11:31:24.819Z,71.50
2019-05-20T11:32:24.795Z,73.00
2019-05-20T11:33:24.779Z,69.90
2019-05-20T11:34:24.780Z,72.50
2019-05-20T11:35:24.759Z,71.30
2019-05-20T11:36:24.895Z,70.80
2019-05-20T11:37:24.732Z,72.50
2019-05-20T11:38:24.731Z,70.90
2019-05-20T11:39:33.397Z,69.30
2019-05-20T11:40:25.706Z,69.90
2019-05-20T11:41:51.094Z,72.00
2019-05-20T11:42:25.679Z,69.60
2019-05-20T11:43:24.682Z,73.50
2019-05-20T11:44:24.658Z,69.10
2019-05-20T11:45:24.656Z,73.20
2019-05-20T11:46:24.658Z,70.50
2019-05-20T11:47:24.626Z,69.50
2019-05-20T11:48:24.624Z,68.00
2019-05-20T11:49:28.810Z,70.10
2019-05-20T11:50:24.590Z,73.90
2019-05-20T11:51:24.589Z,71.40
2019-05-20T11:52:24.579Z,67.10
2019-05-20T11:53:24.570Z,72.20
2019-05-20T11:54:24.574Z,66.90
2019-05-20T11:55:24.542Z,72.60
2019-05-20T11:56:24.608Z,73.00
2019-05-20T11:57:24.556Z,71.90
2019-05-20T11:58:24.506Z,71.10
2019-05-20T11:59:24.514Z,71.40
2019-05-20T12:00:24.499Z,68.80
2019-05-20T12:01:24.492Z,68.80
2019-05-20T12:02:24.508Z,70.40
2019-05-20T12:03:24.495Z,69.90
2019-05-20T12:04:24.449Z,65.90
2019-05-20T12:05:24.445Z,70.80
2019-05-20T12:06:24.463Z,68.40
2019-05-20T12:07:24.467Z,70.60
2019-05-20T12:08:24.411Z,69.00
2019-05-20T12:09:24.424Z,70.00
2019-05-20T12:10:24.374Z,66.80
2019-05-20T12:11:24.370Z,69.20
2019-05-20T12:12:24.372Z,70.90
2019-05-20T12:13:24.337Z,69.00
2019-05-20T12:14:24.355Z,66.30
2019-05-20T12:15:24.311Z,69.60
2019-05-20T12:16:24.329Z,68.90
2019-05-20T12:17:24.310Z,69.20
2019-05-20T12:18:24.277Z,66.90
2019-05-20T12:19:24.269Z,70.40
2019-05-20T12:20:24.261Z,72.20
2019-05-20T12:21:24.244Z,67.80
2019-05-20T12:22:24.249Z,69.60
2019-05-20T12:23:24.233Z,68.40
2019-05-20T12:24:24.213Z,70.90
2019-05-20T12:25:24.210Z,67.10
2019-05-20T12:26:24.203Z,69.90
2019-05-20T12:27:24.179Z,68.10
2019-05-20T12:28:24.183Z,68.80
2019-05-20T12:29:24.153Z,65.30
2019-05-20T12:30:24.174Z,65.40
2019-05-20T12:31:24.145Z,63.50
2019-05-20T12:32:24.147Z,67.10
2019-05-20T12:33:24.109Z,66.70
2019-05-20T12:34:24.098Z,67.30
2019-05-20T12:35:24.112Z,67.00
2019-05-20T12:36:24.078Z,65.70
2019-05-20T12:37:24.084Z,65.30
2019-05-20T12:38:24.073Z,65.60
2019-05-20T12:39:24.066Z,65.70
2019-05-20T12:40:24.048Z,68.20
2019-05-20T12:41:24.040Z,68.30
2019-05-20T12:42:24.018Z,66.50
2019-05-20T12:43:24.010Z,66.30
2019-05-20T12:44:23.986Z,64.80